Time;durP1;ratioP1;P1;durP2;ratioP2;P2;SDS_P1;SDS_P2;PMS_P1;PMS_P2;Temp;Humidity;BMP_temperature;BMP_pressure;BME280_temperature;BME280_humidity;BME280_pressure;Samples;Min_cycle;Max_cycle;Signal;HPM_P1;HPM_P2
2022/06/28 00:08:12;;;;;;;;;;;;;;;17.58;96.98;101784.97;20535263;28;19925;-64
2022/06/28 00:18:37;;;;;;;;;;;;;;;17.51;96.85;101790.84;20533361;28;19946;-64
2022/06/28 00:28:59;;;;;;;;;;;;;;;17.48;95.84;101791.06;20520518;28;19937;-66
2022/06/28 00:39:20;;;;;;;;;;;;;;;17.45;100.00;101796.63;20540954;28;20382;-66
2022/06/28 00:49:42;;;;;;;;;;;;;;;17.31;97.32;101807.38;20517271;28;19926;-68
2022/06/28 01:00:03;;;;;;;;;;;;;;;17.29;96.41;101822.44;20542228;28;19926;-66
2022/06/28 01:10:26;;;;;;;;;;;;;;;17.19;98.92;101842.53;20520037;28;20288;-63
2022/06/28 01:20:47;;;;;;;;;;;;;;;17.02;97.80;101844.75;20530557;28;20528;-65
2022/06/28 01:31:10;;;;;;;;;;;;;;;16.89;99.38;101863.25;20502365;28;20272;-65
2022/06/28 01:41:34;;;;;;;;;;;;;;;16.90;100.00;101867.59;20517312;28;19923;-65
2022/06/28 01:51:56;;;;;;;;;;;;;;;16.80;99.65;101868.41;20514731;28;19922;-65
2022/06/28 02:02:17;;;;;;;;;;;;;;;16.78;100.00;101879.03;20533950;28;19930;-65
2022/06/28 02:12:39;;;;;;;;;;;;;;;16.71;100.00;101864.66;20559286;28;19930;-65
2022/06/28 02:23:00;;;;;;;;;;;;;;;16.58;100.00;101869.13;20528133;28;20363;-66
2022/06/28 02:33:22;;;;;;;;;;;;;;;16.52;100.00;101872.19;20555258;28;19933;-66
2022/06/28 02:43:43;;;;;;;;;;;;;;;16.30;100.00;101871.19;20547047;28;20303;-67
2022/06/28 02:54:05;;;;;;;;;;;;;;;16.22;100.00;101878.78;20558014;28;19930;-66
2022/06/28 03:04:26;;;;;;;;;;;;;;;16.03;100.00;101869.66;20553006;28;19928;-65
2022/06/28 03:14:48;;;;;;;;;;;;;;;16.11;100.00;101883.13;20533896;28;20390;-65
2022/06/28 03:25:09;;;;;;;;;;;;;;;15.88;100.00;101890.00;20525609;28;19933;-64
2022/06/28 03:35:30;;;;;;;;;;;;;;;15.97;100.00;101906.94;20520775;28;19922;-66
2022/06/28 03:45:52;;;;;;;;;;;;;;;15.72;100.00;101904.28;20545171;28;20319;-65
2022/06/28 03:56:13;;;;;;;;;;;;;;;15.55;100.00;101917.75;20520516;28;19929;-65
2022/06/28 04:06:35;;;;;;;;;;;;;;;15.60;100.00;101928.78;20543209;28;19926;-63
2022/06/28 04:16:56;;;;;;;;;;;;;;;15.58;100.00;101930.69;20513019;28;20279;-64
2022/06/28 04:27:19;;;;;;;;;;;;;;;15.74;100.00;101949.72;20519807;28;19930;-64
2022/06/28 04:37:40;;;;;;;;;;;;;;;15.78;100.00;101956.47;20537288;28;19933;-65
2022/06/28 04:48:02;;;;;;;;;;;;;;;15.79;100.00;101963.41;20526777;28;20508;-65
2022/06/28 04:58:23;;;;;;;;;;;;;;;16.07;100.00;101957.94;20509477;28;19929;-64
2022/06/28 05:08:45;;;;;;;;;;;;;;;16.21;99.79;101965.72;20512366;28;20294;-64
2022/06/28 05:19:06;;;;;;;;;;;;;;;16.48;100.00;101970.75;20536728;28;19922;-65
2022/06/28 05:29:28;;;;;;;;;;;;;;;16.58;98.37;101971.81;20513165;28;20314;-64
2022/06/28 05:39:49;;;;;;;;;;;;;;;16.79;100.00;101965.00;20543647;28;19931;-64
2022/06/28 05:50:11;;;;;;;;;;;;;;;16.96;96.06;101975.16;20538433;28;20294;-65
2022/06/28 06:00:34;;;;;;;;;;;;;;;17.13;94.94;101974.78;20541573;28;20481;-64
2022/06/28 06:10:55;;;;;;;;;;;;;;;17.37;92.53;101972.97;20543365;28;20395;-64
2022/06/28 06:21:17;;;;;;;;;;;;;;;17.67;97.57;101991.78;20549173;28;19922;-64
2022/06/28 06:31:38;;;;;;;;;;;;;;;17.82;91.33;101990.63;20551019;28;19926;-65
2022/06/28 06:42:00;;;;;;;;;;;;;;;18.04;87.85;101980.13;20528337;28;19926;-64
2022/06/28 06:52:21;;;;;;;;;;;;;;;18.32;86.30;101984.97;20517495;28;19941;-64
2022/06/28 07:02:43;;;;;;;;;;;;;;;18.58;86.98;101981.94;20538731;28;19926;-64
2022/06/28 07:13:05;;;;;;;;;;;;;;;18.85;84.51;101980.59;20549799;28;19950;-64
2022/06/28 07:23:27;;;;;;;;;;;;;;;19.15;84.65;101978.13;20560379;28;20279;-61
2022/06/28 07:33:49;;;;;;;;;;;;;;;19.44;82.21;101974.75;20518853;28;20005;-63
2022/06/28 07:44:11;;;;;;;;;;;;;;;19.63;80.66;101982.00;20518085;28;19922;-62
2022/06/28 07:54:32;;;;;;;;;;;;;;;19.82;78.92;101984.78;20526748;28;19926;-64
2022/06/28 08:04:54;;;;;;;;;;;;;;;20.05;79.08;101983.72;20528366;28;20529;-65
2022/06/28 08:15:16;;;;;;;;;;;;;;;20.39;76.88;101981.50;20530060;28;19922;-66
2022/06/28 08:25:38;;;;;;;;;;;;;;;20.34;76.69;101982.03;20516052;28;19933;-65
2022/06/28 08:35:59;;;;;;;;;;;;;;;20.18;76.67;101986.97;20506603;28;19934;-63
2022/06/28 08:46:21;;;;;;;;;;;;;;;20.34;74.91;101984.69;20511285;28;19938;-64
2022/06/28 08:56:43;;;;;;;;;;;;;;;20.54;74.20;101985.44;20515457;28;20379;-63
2022/06/28 09:07:04;;;;;;;5.07;2.53;;;;;;;20.88;73.24;101978.88;20546911;28;19930;-63
2022/06/28 09:17:28;;;;;;;;;;;;;;;21.05;69.88;101975.56;20549647;28;20054;-63
2022/06/28 09:27:54;;;;;;;;;;;;;;;21.47;70.11;101961.88;20532450;28;19953;-64
2022/06/28 09:38:27;;;;;;;;;;;;;;;21.96;69.79;101963.53;20536824;28;19949;-64
2022/06/28 09:48:48;;;;;;;;;;;;;;;22.09;65.72;101969.38;20577998;28;20398;-67
2022/06/28 09:59:10;;;;;;;2.45;1.10;;;;;;;22.28;68.09;101963.97;20557433;28;19930;-63
2022/06/28 10:09:32;;;;;;;1.52;0.73;;;;;;;22.75;62.06;101947.81;20536839;28;20043;-65
2022/06/28 10:19:56;;;;;;;;;;;;;;;22.14;62.34;101962.63;20535694;28;20071;-67
2022/06/28 10:30:18;;;;;;;;;;;;;;;22.04;66.80;101961.84;20536535;28;19918;-68
2022/06/28 10:40:49;;;;;;;;;;;;;;;22.46;61.97;101947.97;20576066;28;19987;-65
2022/06/28 10:51:11;;;;;;;;;;;;;;;23.05;61.71;101940.31;20520253;28;19922;-65
2022/06/28 11:01:38;;;;;;;;;;;;;;;23.03;61.87;101944.13;20541874;28;19923;-65
2022/06/28 11:12:04;;;;;;;;;;;;;;;22.99;65.76;101946.25;20519027;28;19930;-66
2022/06/28 11:22:31;;;;;;;;;;;;;;;22.57;66.47;101937.13;20551014;28;19927;-65
2022/06/28 11:32:57;;;;;;;;;;;;;;;22.74;62.61;101928.34;20519186;28;19929;-65
2022/06/28 11:43:20;;;;;;;;;;;;;;;23.34;61.51;101924.16;20526850;28;20268;-65
2022/06/28 11:53:45;;;;;;;;;;;;;;;23.85;61.76;101925.06;20533041;28;20282;-67
2022/06/28 12:04:07;;;;;;;;;;;;;;;23.44;61.54;101920.38;20546179;28;19926;-67
2022/06/28 12:14:30;;;;;;;;;;;;;;;23.62;63.38;101929.19;20543087;28;19921;-67
2022/06/28 12:24:52;;;;;;;;;;;;;;;23.48;62.34;101917.28;20557082;28;19928;-67
2022/06/28 12:35:18;;;;;;;;;;;;;;;23.61;58.59;101916.84;20534842;28;19932;-67
2022/06/28 12:45:39;;;;;;;;;;;;;;;23.73;59.59;101912.94;20533889;28;20263;-66
2022/06/28 12:56:01;;;;;;;;;;;;;;;23.67;58.72;101917.06;20523392;28;19926;-68
2022/06/28 13:06:23;;;;;;;;;;;;;;;23.69;59.87;101916.91;20509048;28;19933;-67
2022/06/28 13:16:44;;;;;;;;;;;;;;;23.93;57.68;101903.78;20531967;28;19926;-67
2022/06/28 13:27:06;;;;;;;;;;;;;;;24.01;63.77;101890.50;20536302;28;19926;-67
2022/06/28 13:37:29;;;;;;;;;;;;;;;24.18;59.19;101884.22;20520005;28;19926;-66
2022/06/28 13:47:50;;;;;;;;;;;;;;;24.31;56.49;101877.47;20530485;28;20017;-66
2022/06/28 13:58:14;;;;;;;;;;;;;;;24.04;57.31;101867.03;20536197;28;19942;-64
2022/06/28 14:08:35;;;;;;;;;;;;;;;24.20;56.62;101855.59;20543169;28;20288;-64
2022/06/28 14:18:57;;;;;;;;;;;;;;;24.20;59.74;101851.09;20551740;28;20338;-63
2022/06/28 14:29:18;;;;;;;;;;;;;;;24.30;58.55;101846.47;20525940;28;20295;-65
2022/06/28 14:39:40;;;;;;;;;;;;;;;24.45;59.42;101840.34;20524777;28;20576;-65
2022/06/28 14:50:10;;;;;;;;;;;;;;;24.49;53.84;101846.22;20518608;28;19990;-64
2022/06/28 15:00:31;;;;;;;;;;;;;;;24.44;55.23;101840.50;20525058;28;19926;-64
2022/06/28 15:10:53;;;;;;;;;;;;;;;24.66;52.46;101826.59;20554242;28;19965;-65
2022/06/28 15:32:14;;;;;;;;;;;;;;;24.50;44.64;101826.56;20535810;28;19962;-65
2022/06/28 15:42:36;;;;;;;;;;;;;;;24.36;56.13;101820.00;20519439;28;20376;-65
2022/06/28 15:52:57;;;;;;;;;;;;;;;24.49;59.35;101788.38;20553233;28;19921;-65
2022/06/28 16:03:19;;;;;;;;;;;;;;;24.76;55.84;101780.06;20537094;28;20580;-64
2022/06/28 16:13:40;;;;;;;;;;;;;;;25.20;56.37;101761.88;20526641;28;19934;-65
2022/06/28 16:24:02;;;;;;;;;;;;;;;26.17;56.78;101758.66;20529885;28;19934;-66
2022/06/28 16:34:23;;;;;;;;;;;;;;;26.53;55.52;101750.75;20519767;28;19929;-65
2022/06/28 16:44:46;;;;;;;;;;;;;;;27.18;51.73;101749.19;20516508;28;19922;-65
2022/06/28 16:55:08;;;;;;;;;;;;;;;27.41;53.32;101757.94;20518942;28;19938;-63
2022/06/28 17:05:29;;;;;;;;;;;;;;;27.70;52.29;101749.94;20537640;28;19933;-68
2022/06/28 17:15:51;;;;;;;;;;;;;;;28.05;47.94;101751.81;20511884;28;19926;-64
2022/06/28 17:26:12;;;;;;;;;;;;;;;27.92;57.08;101736.38;20511159;28;19934;-63
2022/06/28 17:36:34;;;;;;;;;;;;;;;27.57;56.21;101731.81;20513203;28;19933;-64
2022/06/28 17:46:56;;;;;;;;;;;;;;;27.12;53.71;101719.63;20538554;28;19926;-64
2022/06/28 17:57:18;;;;;;;;;;;;;;;26.73;53.43;101719.81;20520117;28;19929;-63
2022/06/28 18:07:40;;;;;;;;;;;;;;;26.42;55.80;101724.41;20549390;28;19936;-66
2022/06/28 18:18:09;;;;;;;;;;;;;;;26.18;56.96;101733.59;20539074;28;19930;-64
2022/06/28 18:28:30;;;;;;;;;;;;;;;25.96;57.29;101732.56;20561322;28;19926;-64
2022/06/28 18:38:52;;;;;;;1.50;0.50;;;;;;;25.67;57.55;101739.50;20531770;28;19962;-64
2022/06/28 18:49:14;;;;;;;1.35;0.50;;;;;;;25.41;58.67;101738.94;20534580;28;20050;-63
2022/06/28 18:59:38;;;;;;;;;;;;;;;25.21;58.76;101748.34;20544657;28;20771;-64
2022/06/28 19:09:59;;;;;;;;;;;;;;;25.02;59.22;101761.19;20522987;28;19928;-64
2022/06/28 19:20:21;;;;;;;;;;;;;;;24.75;59.42;101772.22;20545131;28;19922;-63
2022/06/28 19:30:46;;;;;;;;;;;;;;;24.53;60.66;101768.38;20535849;28;19923;-63
2022/06/28 19:41:07;;;;;;;;;;;;;;;24.35;60.49;101767.66;20556167;28;20275;-60
2022/06/28 19:51:29;;;;;;;;;;;;;;;24.08;61.32;101758.28;20528412;28;19927;-61
2022/06/28 20:01:51;;;;;;;;;;;;;;;23.81;62.06;101763.84;20519669;28;19922;-62
2022/06/28 20:12:13;;;;;;;;;;;;;;;23.61;60.67;101773.91;20542069;28;19930;-63
2022/06/28 20:22:34;;;;;;;;;;;;;;;23.36;62.21;101770.44;20539813;28;19936;-61
2022/06/28 20:32:58;;;;;;;;;;;;;;;23.07;63.43;101760.09;20530744;28;19930;-63
2022/06/28 20:43:20;;;;;;;1.80;0.93;;;;;;;22.78;65.24;101762.19;20544091;28;19921;-62
2022/06/28 20:53:42;;;;;;;3.60;1.05;;;;;;;22.52;66.15;101761.31;20557303;28;20073;-63
2022/06/28 21:04:04;;;;;;;;;;;;;;;22.36;67.49;101764.78;20531076;28;20054;-62
2022/06/28 21:14:25;;;;;;;;;;;;;;;22.19;68.05;101761.13;20529576;28;20482;-61
2022/06/28 21:24:47;;;;;;;;;;;;;;;22.02;68.44;101756.59;20470211;28;20417;-62
2022/06/28 21:35:09;;;;;;;;;;;;;;;21.89;68.83;101760.59;20520213;28;19934;-61
2022/06/28 21:45:32;;;;;;;;;;;;;;;21.77;69.50;101761.78;20510304;28;19953;-62
2022/06/28 21:55:53;;;;;;;;;;;;;;;21.63;69.57;101760.44;20501045;28;20592;-62
2022/06/28 22:06:15;;;;;;;;;;;;;;;21.54;69.70;101760.47;20532998;28;19926;-61
2022/06/28 22:16:36;;;;;;;;;;;;;;;21.40;70.24;101766.22;20514413;28;19926;-62
2022/06/28 22:26:58;;;;;;;;;;;;;;;21.13;71.18;101760.03;20526077;28;20072;-63
2022/06/28 22:37:19;;;;;;;;;;;;;;;21.03;71.85;101760.06;20511081;28;19926;-63
2022/06/28 22:47:41;;;;;;;;;;;;;;;20.93;71.91;101746.00;20540127;28;19926;-62
2022/06/28 22:58:02;;;;;;;;;;;;;;;20.85;72.35;101739.72;20503162;28;19926;-63
2022/06/28 23:08:24;;;;;;;;;;;;;;;20.62;73.22;101728.56;20530416;28;19926;-63
2022/06/28 23:18:45;;;;;;;;;;;;;;;20.51;73.95;101717.28;20526380;28;20315;-63
2022/06/28 23:29:07;;;;;;;;;;;;;;;20.40;73.91;101696.22;20530807;28;19930;-62
2022/06/28 23:39:28;;;;;;;;;;;;;;;20.28;73.99;101683.25;20524842;28;19923;-62
2022/06/28 23:49:50;;;;;;;;;;;;;;;20.19;73.58;101676.16;20520021;28;20294;-62
